sensor_id;sensor_type;location;lat;lon;timestamp;temperature;humidity
63047;DHT22;62025;39.238;9.126;2023-03-19T00:01:06;16.20;76.10
63047;DHT22;62025;39.238;9.126;2023-03-19T00:03:33;16.20;76.00
63047;DHT22;62025;39.238;9.126;2023-03-19T00:05:59;16.20;75.90
63047;DHT22;62025;39.238;9.126;2023-03-19T00:08:25;16.20;76.00
63047;DHT22;62025;39.238;9.126;2023-03-19T00:10:51;16.20;75.90
63047;DHT22;62025;39.238;9.126;2023-03-19T00:13:17;16.20;76.00
63047;DHT22;62025;39.238;9.126;2023-03-19T00:15:43;16.20;75.90
63047;DHT22;62025;39.238;9.126;2023-03-19T00:18:09;16.20;75.90
63047;DHT22;62025;39.238;9.126;2023-03-19T00:20:35;16.20;75.80
63047;DHT22;62025;39.238;9.126;2023-03-19T00:23:01;16.20;75.80
63047;DHT22;62025;39.238;9.126;2023-03-19T00:25:26;16.20;75.80
63047;DHT22;62025;39.238;9.126;2023-03-19T00:27:52;16.20;75.80
63047;DHT22;62025;39.238;9.126;2023-03-19T00:30:19;16.20;75.80
63047;DHT22;62025;39.238;9.126;2023-03-19T00:32:46;16.20;75.90
63047;DHT22;62025;39.238;9.126;2023-03-19T00:35:12;16.20;75.90
63047;DHT22;62025;39.238;9.126;2023-03-19T00:37:39;16.20;75.80
63047;DHT22;62025;39.238;9.126;2023-03-19T00:40:06;16.20;75.80
63047;DHT22;62025;39.238;9.126;2023-03-19T00:42:34;16.30;75.70
63047;DHT22;62025;39.238;9.126;2023-03-19T00:45:01;16.30;75.70
63047;DHT22;62025;39.238;9.126;2023-03-19T00:47:31;16.30;75.70
63047;DHT22;62025;39.238;9.126;2023-03-19T00:49:57;16.20;75.60
63047;DHT22;62025;39.238;9.126;2023-03-19T00:52:23;16.20;75.50
63047;DHT22;62025;39.238;9.126;2023-03-19T00:54:49;16.30;75.40
63047;DHT22;62025;39.238;9.126;2023-03-19T00:57:15;16.20;75.40
63047;DHT22;62025;39.238;9.126;2023-03-19T00:59:42;16.20;75.50
63047;DHT22;62025;39.238;9.126;2023-03-19T01:02:08;16.30;75.40
63047;DHT22;62025;39.238;9.126;2023-03-19T01:04:33;16.20;75.40
63047;DHT22;62025;39.238;9.126;2023-03-19T01:06:59;16.20;75.50
63047;DHT22;62025;39.238;9.126;2023-03-19T01:09:25;16.20;75.30
63047;DHT22;62025;39.238;9.126;2023-03-19T01:11:51;16.20;75.30
63047;DHT22;62025;39.238;9.126;2023-03-19T01:14:17;16.20;75.30
63047;DHT22;62025;39.238;9.126;2023-03-19T01:16:43;16.20;75.20
63047;DHT22;62025;39.238;9.126;2023-03-19T01:19:09;16.20;75.30
63047;DHT22;62025;39.238;9.126;2023-03-19T01:21:37;16.20;75.40
63047;DHT22;62025;39.238;9.126;2023-03-19T01:24:03;16.20;75.30
63047;DHT22;62025;39.238;9.126;2023-03-19T01:26:29;16.30;75.30
63047;DHT22;62025;39.238;9.126;2023-03-19T01:29:05;16.20;75.40
63047;DHT22;62025;39.238;9.126;2023-03-19T01:31:32;16.30;75.30
63047;DHT22;62025;39.238;9.126;2023-03-19T01:34:31;16.20;75.40
63047;DHT22;62025;39.238;9.126;2023-03-19T01:37:05;16.20;75.60
63047;DHT22;62025;39.238;9.126;2023-03-19T01:39:32;16.20;75.80
63047;DHT22;62025;39.238;9.126;2023-03-19T01:42:00;16.20;75.90
63047;DHT22;62025;39.238;9.126;2023-03-19T01:44:35;16.20;75.90
63047;DHT22;62025;39.238;9.126;2023-03-19T01:47:30;16.20;75.90
63047;DHT22;62025;39.238;9.126;2023-03-19T01:53:13;16.10;76.10
63047;DHT22;62025;39.238;9.126;2023-03-19T01:55:50;16.20;76.20
63047;DHT22;62025;39.238;9.126;2023-03-19T01:58:36;16.20;76.20
63047;DHT22;62025;39.238;9.126;2023-03-19T02:01:20;16.10;76.20
63047;DHT22;62025;39.238;9.126;2023-03-19T02:03:49;16.10;76.20
63047;DHT22;62025;39.238;9.126;2023-03-19T02:06:22;16.10;76.40
63047;DHT22;62025;39.238;9.126;2023-03-19T02:08:49;16.10;76.70
63047;DHT22;62025;39.238;9.126;2023-03-19T02:11:16;16.10;76.80
63047;DHT22;62025;39.238;9.126;2023-03-19T02:13:42;16.00;77.00
63047;DHT22;62025;39.238;9.126;2023-03-19T02:16:09;16.10;77.00
63047;DHT22;62025;39.238;9.126;2023-03-19T02:18:35;16.10;77.00
63047;DHT22;62025;39.238;9.126;2023-03-19T02:23:40;16.20;76.80
63047;DHT22;62025;39.238;9.126;2023-03-19T02:26:17;16.10;76.70
63047;DHT22;62025;39.238;9.126;2023-03-19T02:28:47;16.20;76.60
63047;DHT22;62025;39.238;9.126;2023-03-19T02:31:18;16.20;76.60
63047;DHT22;62025;39.238;9.126;2023-03-19T02:37:03;16.10;76.80
63047;DHT22;62025;39.238;9.126;2023-03-19T02:39:35;16.20;76.80
63047;DHT22;62025;39.238;9.126;2023-03-19T02:42:04;16.20;76.80
63047;DHT22;62025;39.238;9.126;2023-03-19T02:44:31;16.20;76.80
63047;DHT22;62025;39.238;9.126;2023-03-19T02:46:57;16.30;76.80
63047;DHT22;62025;39.238;9.126;2023-03-19T02:49:23;16.30;76.90
63047;DHT22;62025;39.238;9.126;2023-03-19T02:51:49;16.20;76.90
63047;DHT22;62025;39.238;9.126;2023-03-19T02:54:16;16.20;77.10
63047;DHT22;62025;39.238;9.126;2023-03-19T02:56:41;16.20;77.00
63047;DHT22;62025;39.238;9.126;2023-03-19T02:59:07;16.10;77.10
63047;DHT22;62025;39.238;9.126;2023-03-19T03:01:34;16.10;77.30
63047;DHT22;62025;39.238;9.126;2023-03-19T03:04:00;16.10;77.40
63047;DHT22;62025;39.238;9.126;2023-03-19T03:06:26;16.10;77.30
63047;DHT22;62025;39.238;9.126;2023-03-19T03:08:52;16.10;77.30
63047;DHT22;62025;39.238;9.126;2023-03-19T03:11:17;16.00;77.50
63047;DHT22;62025;39.238;9.126;2023-03-19T03:13:43;16.10;77.40
63047;DHT22;62025;39.238;9.126;2023-03-19T03:16:09;16.20;77.30
63047;DHT22;62025;39.238;9.126;2023-03-19T03:18:35;16.10;77.20
63047;DHT22;62025;39.238;9.126;2023-03-19T03:21:02;16.20;77.10
63047;DHT22;62025;39.238;9.126;2023-03-19T03:23:28;16.20;77.10
63047;DHT22;62025;39.238;9.126;2023-03-19T03:25:53;16.20;77.10
63047;DHT22;62025;39.238;9.126;2023-03-19T03:28:20;16.20;77.10
63047;DHT22;62025;39.238;9.126;2023-03-19T03:30:45;16.20;77.20
63047;DHT22;62025;39.238;9.126;2023-03-19T03:33:11;16.10;77.10
63047;DHT22;62025;39.238;9.126;2023-03-19T03:35:37;16.20;77.20
63047;DHT22;62025;39.238;9.126;2023-03-19T03:38:04;16.10;77.20
63047;DHT22;62025;39.238;9.126;2023-03-19T03:40:31;16.10;77.10
63047;DHT22;62025;39.238;9.126;2023-03-19T03:42:58;16.10;77.20
63047;DHT22;62025;39.238;9.126;2023-03-19T03:45:24;16.20;77.10
63047;DHT22;62025;39.238;9.126;2023-03-19T03:47:51;16.10;77.10
63047;DHT22;62025;39.238;9.126;2023-03-19T03:50:17;16.10;77.10
63047;DHT22;62025;39.238;9.126;2023-03-19T03:52:45;16.10;77.10
63047;DHT22;62025;39.238;9.126;2023-03-19T03:55:12;16.10;77.10
63047;DHT22;62025;39.238;9.126;2023-03-19T03:57:38;16.10;77.10
63047;DHT22;62025;39.238;9.126;2023-03-19T04:00:04;16.10;77.10
63047;DHT22;62025;39.238;9.126;2023-03-19T04:02:38;16.10;77.20
63047;DHT22;62025;39.238;9.126;2023-03-19T04:05:04;16.10;77.10
63047;DHT22;62025;39.238;9.126;2023-03-19T04:07:31;16.10;77.00
63047;DHT22;62025;39.238;9.126;2023-03-19T04:09:57;16.10;77.00
63047;DHT22;62025;39.238;9.126;2023-03-19T04:12:23;16.10;76.90
63047;DHT22;62025;39.238;9.126;2023-03-19T04:14:49;16.10;76.80
63047;DHT22;62025;39.238;9.126;2023-03-19T04:17:16;16.10;76.90
63047;DHT22;62025;39.238;9.126;2023-03-19T04:19:42;16.10;76.80
63047;DHT22;62025;39.238;9.126;2023-03-19T04:22:08;16.10;76.80
63047;DHT22;62025;39.238;9.126;2023-03-19T04:24:35;16.10;76.90
63047;DHT22;62025;39.238;9.126;2023-03-19T04:27:02;16.00;77.00
63047;DHT22;62025;39.238;9.126;2023-03-19T04:29:28;16.00;77.00
63047;DHT22;62025;39.238;9.126;2023-03-19T04:31:55;16.10;77.00
63047;DHT22;62025;39.238;9.126;2023-03-19T04:34:21;16.10;76.90
63047;DHT22;62025;39.238;9.126;2023-03-19T04:36:47;16.10;77.00
63047;DHT22;62025;39.238;9.126;2023-03-19T04:39:13;16.10;77.00
63047;DHT22;62025;39.238;9.126;2023-03-19T04:41:39;16.10;76.90
63047;DHT22;62025;39.238;9.126;2023-03-19T04:44:34;16.10;76.90
63047;DHT22;62025;39.238;9.126;2023-03-19T04:47:00;16.10;77.00
63047;DHT22;62025;39.238;9.126;2023-03-19T04:49:29;16.00;77.10
63047;DHT22;62025;39.238;9.126;2023-03-19T04:51:58;16.00;77.30
63047;DHT22;62025;39.238;9.126;2023-03-19T04:54:24;16.00;77.10
63047;DHT22;62025;39.238;9.126;2023-03-19T04:56:50;16.00;77.10
63047;DHT22;62025;39.238;9.126;2023-03-19T04:59:20;16.00;77.10
63047;DHT22;62025;39.238;9.126;2023-03-19T05:01:46;16.00;77.10
63047;DHT22;62025;39.238;9.126;2023-03-19T05:04:17;16.00;77.10
63047;DHT22;62025;39.238;9.126;2023-03-19T05:06:44;16.00;77.10
63047;DHT22;62025;39.238;9.126;2023-03-19T05:09:10;16.00;77.10
63047;DHT22;62025;39.238;9.126;2023-03-19T05:11:35;16.00;77.20
63047;DHT22;62025;39.238;9.126;2023-03-19T05:14:04;15.90;77.10
63047;DHT22;62025;39.238;9.126;2023-03-19T05:16:42;15.90;77.10
63047;DHT22;62025;39.238;9.126;2023-03-19T05:19:08;15.90;77.20
63047;DHT22;62025;39.238;9.126;2023-03-19T05:21:36;15.90;77.30
63047;DHT22;62025;39.238;9.126;2023-03-19T05:24:02;15.90;77.30
63047;DHT22;62025;39.238;9.126;2023-03-19T05:26:32;15.90;77.20
63047;DHT22;62025;39.238;9.126;2023-03-19T05:29:09;15.90;77.30
63047;DHT22;62025;39.238;9.126;2023-03-19T05:32:02;15.90;77.30
63047;DHT22;62025;39.238;9.126;2023-03-19T05:34:30;15.80;77.30
63047;DHT22;62025;39.238;9.126;2023-03-19T05:36:56;15.90;77.30
63047;DHT22;62025;39.238;9.126;2023-03-19T05:39:23;15.80;77.30
63047;DHT22;62025;39.238;9.126;2023-03-19T05:41:49;15.80;77.40
63047;DHT22;62025;39.238;9.126;2023-03-19T05:44:19;15.80;77.40
63047;DHT22;62025;39.238;9.126;2023-03-19T05:47:14;15.80;77.20
63047;DHT22;62025;39.238;9.126;2023-03-19T05:49:47;15.80;77.30
63047;DHT22;62025;39.238;9.126;2023-03-19T05:52:13;15.80;77.20
63047;DHT22;62025;39.238;9.126;2023-03-19T05:54:40;15.80;77.20
63047;DHT22;62025;39.238;9.126;2023-03-19T05:57:11;15.80;77.20
63047;DHT22;62025;39.238;9.126;2023-03-19T05:59:45;15.80;77.10
63047;DHT22;62025;39.238;9.126;2023-03-19T06:02:37;15.80;77.10
63047;DHT22;62025;39.238;9.126;2023-03-19T06:05:21;15.90;77.20
63047;DHT22;62025;39.238;9.126;2023-03-19T06:07:49;15.90;77.20
63047;DHT22;62025;39.238;9.126;2023-03-19T06:10:38;15.90;77.20
63047;DHT22;62025;39.238;9.126;2023-03-19T06:13:08;15.90;77.30
63047;DHT22;62025;39.238;9.126;2023-03-19T06:15:37;15.90;77.40
63047;DHT22;62025;39.238;9.126;2023-03-19T06:18:26;15.80;77.50
63047;DHT22;62025;39.238;9.126;2023-03-19T06:20:52;15.80;77.60
63047;DHT22;62025;39.238;9.126;2023-03-19T06:23:18;15.90;77.50
63047;DHT22;62025;39.238;9.126;2023-03-19T06:25:45;15.90;77.70
63047;DHT22;62025;39.238;9.126;2023-03-19T06:28:12;15.90;77.50
63047;DHT22;62025;39.238;9.126;2023-03-19T06:30:41;15.90;77.40
63047;DHT22;62025;39.238;9.126;2023-03-19T06:33:25;15.90;77.30
63047;DHT22;62025;39.238;9.126;2023-03-19T06:35:57;15.90;77.40
63047;DHT22;62025;39.238;9.126;2023-03-19T06:38:23;15.90;77.40
63047;DHT22;62025;39.238;9.126;2023-03-19T06:40:49;15.90;77.50
63047;DHT22;62025;39.238;9.126;2023-03-19T06:43:15;15.90;77.50
63047;DHT22;62025;39.238;9.126;2023-03-19T06:45:41;15.90;77.60
63047;DHT22;62025;39.238;9.126;2023-03-19T06:48:07;15.90;77.60
63047;DHT22;62025;39.238;9.126;2023-03-19T06:50:33;16.00;77.40
63047;DHT22;62025;39.238;9.126;2023-03-19T06:52:59;16.00;77.50
63047;DHT22;62025;39.238;9.126;2023-03-19T06:55:25;16.00;77.50
63047;DHT22;62025;39.238;9.126;2023-03-19T06:57:51;16.00;77.40
63047;DHT22;62025;39.238;9.126;2023-03-19T07:00:17;16.00;77.30
63047;DHT22;62025;39.238;9.126;2023-03-19T07:02:43;16.00;77.30
63047;DHT22;62025;39.238;9.126;2023-03-19T07:05:09;16.00;77.30
63047;DHT22;62025;39.238;9.126;2023-03-19T07:07:35;16.10;77.40
63047;DHT22;62025;39.238;9.126;2023-03-19T07:10:01;16.00;77.50
63047;DHT22;62025;39.238;9.126;2023-03-19T07:12:28;16.10;77.40
63047;DHT22;62025;39.238;9.126;2023-03-19T07:14:54;16.10;77.40
63047;DHT22;62025;39.238;9.126;2023-03-19T07:17:21;16.00;77.50
63047;DHT22;62025;39.238;9.126;2023-03-19T07:19:47;16.10;77.30
63047;DHT22;62025;39.238;9.126;2023-03-19T07:22:13;16.00;77.30
63047;DHT22;62025;39.238;9.126;2023-03-19T07:24:39;16.10;77.30
63047;DHT22;62025;39.238;9.126;2023-03-19T07:27:05;16.00;77.40
63047;DHT22;62025;39.238;9.126;2023-03-19T07:29:31;16.10;77.40
63047;DHT22;62025;39.238;9.126;2023-03-19T07:31:57;16.00;77.50
63047;DHT22;62025;39.238;9.126;2023-03-19T07:34:23;16.00;77.60
63047;DHT22;62025;39.238;9.126;2023-03-19T07:36:49;16.00;77.70
63047;DHT22;62025;39.238;9.126;2023-03-19T07:39:15;16.10;77.60
63047;DHT22;62025;39.238;9.126;2023-03-19T07:41:41;16.10;77.40
63047;DHT22;62025;39.238;9.126;2023-03-19T07:44:13;16.10;77.40
63047;DHT22;62025;39.238;9.126;2023-03-19T07:46:39;16.10;77.50
63047;DHT22;62025;39.238;9.126;2023-03-19T07:49:05;16.10;77.60
63047;DHT22;62025;39.238;9.126;2023-03-19T07:51:32;16.10;77.30
63047;DHT22;62025;39.238;9.126;2023-03-19T07:53:58;16.20;77.20
63047;DHT22;62025;39.238;9.126;2023-03-19T07:56:24;16.20;77.30
63047;DHT22;62025;39.238;9.126;2023-03-19T07:58:50;16.20;77.40
63047;DHT22;62025;39.238;9.126;2023-03-19T08:01:17;16.20;77.40
63047;DHT22;62025;39.238;9.126;2023-03-19T08:03:43;16.30;77.30
63047;DHT22;62025;39.238;9.126;2023-03-19T08:06:09;16.30;77.00
63047;DHT22;62025;39.238;9.126;2023-03-19T08:08:35;16.30;77.00
63047;DHT22;62025;39.238;9.126;2023-03-19T08:11:01;16.30;76.80
63047;DHT22;62025;39.238;9.126;2023-03-19T08:13:27;16.30;76.50
63047;DHT22;62025;39.238;9.126;2023-03-19T08:15:53;16.30;76.50
63047;DHT22;62025;39.238;9.126;2023-03-19T08:18:20;16.30;76.30
63047;DHT22;62025;39.238;9.126;2023-03-19T08:20:47;16.30;76.20
63047;DHT22;62025;39.238;9.126;2023-03-19T08:23:14;16.40;76.10
63047;DHT22;62025;39.238;9.126;2023-03-19T08:25:40;16.40;76.20
63047;DHT22;62025;39.238;9.126;2023-03-19T08:28:06;16.40;76.00
63047;DHT22;62025;39.238;9.126;2023-03-19T08:30:37;16.40;76.00
63047;DHT22;62025;39.238;9.126;2023-03-19T08:33:03;16.40;76.10
63047;DHT22;62025;39.238;9.126;2023-03-19T08:35:29;16.30;76.10
63047;DHT22;62025;39.238;9.126;2023-03-19T08:37:55;16.40;76.10
63047;DHT22;62025;39.238;9.126;2023-03-19T08:40:21;16.40;75.80
63047;DHT22;62025;39.238;9.126;2023-03-19T08:42:48;16.40;75.70
63047;DHT22;62025;39.238;9.126;2023-03-19T08:45:14;16.40;75.70
63047;DHT22;62025;39.238;9.126;2023-03-19T08:47:40;16.40;75.80
63047;DHT22;62025;39.238;9.126;2023-03-19T08:50:07;16.40;75.70
63047;DHT22;62025;39.238;9.126;2023-03-19T08:52:34;16.40;75.60
63047;DHT22;62025;39.238;9.126;2023-03-19T08:55:00;16.40;75.70
63047;DHT22;62025;39.238;9.126;2023-03-19T08:57:25;16.40;75.70
63047;DHT22;62025;39.238;9.126;2023-03-19T08:59:51;16.40;75.60
63047;DHT22;62025;39.238;9.126;2023-03-19T09:02:17;16.40;75.50
63047;DHT22;62025;39.238;9.126;2023-03-19T09:04:43;16.40;75.60
63047;DHT22;62025;39.238;9.126;2023-03-19T09:07:10;16.40;75.40
63047;DHT22;62025;39.238;9.126;2023-03-19T09:09:38;16.50;75.10
63047;DHT22;62025;39.238;9.126;2023-03-19T09:12:05;16.50;74.80
63047;DHT22;62025;39.238;9.126;2023-03-19T09:14:32;16.60;74.70
63047;DHT22;62025;39.238;9.126;2023-03-19T09:16:58;16.50;75.00
63047;DHT22;62025;39.238;9.126;2023-03-19T09:19:24;16.50;75.00
63047;DHT22;62025;39.238;9.126;2023-03-19T09:21:50;16.50;75.00
63047;DHT22;62025;39.238;9.126;2023-03-19T09:24:16;16.50;75.10
63047;DHT22;62025;39.238;9.126;2023-03-19T09:26:43;16.50;75.30
63047;DHT22;62025;39.238;9.126;2023-03-19T09:29:10;16.50;75.00
63047;DHT22;62025;39.238;9.126;2023-03-19T09:31:36;16.60;75.00
63047;DHT22;62025;39.238;9.126;2023-03-19T09:34:02;16.60;74.60
63047;DHT22;62025;39.238;9.126;2023-03-19T09:36:29;16.60;74.60
63047;DHT22;62025;39.238;9.126;2023-03-19T09:38:54;16.70;74.40
63047;DHT22;62025;39.238;9.126;2023-03-19T09:46:32;16.70;74.30
63047;DHT22;62025;39.238;9.126;2023-03-19T09:49:06;16.80;74.00
63047;DHT22;62025;39.238;9.126;2023-03-19T09:51:46;16.80;73.40
63047;DHT22;62025;39.238;9.126;2023-03-19T09:54:21;16.90;73.50
63047;DHT22;62025;39.238;9.126;2023-03-19T09:56:52;16.90;73.20
63047;DHT22;62025;39.238;9.126;2023-03-19T09:59:19;16.90;73.40
63047;DHT22;62025;39.238;9.126;2023-03-19T10:01:49;17.00;73.30
63047;DHT22;62025;39.238;9.126;2023-03-19T10:07:37;17.00;73.30
63047;DHT22;62025;39.238;9.126;2023-03-19T10:13:06;17.10;73.30
63047;DHT22;62025;39.238;9.126;2023-03-19T10:16:04;17.10;74.00
63047;DHT22;62025;39.238;9.126;2023-03-19T10:18:31;17.10;74.10
63047;DHT22;62025;39.238;9.126;2023-03-19T10:21:04;17.10;74.70
63047;DHT22;62025;39.238;9.126;2023-03-19T10:23:54;17.10;75.00
63047;DHT22;62025;39.238;9.126;2023-03-19T10:26:27;17.10;74.50
63047;DHT22;62025;39.238;9.126;2023-03-19T10:29:05;17.20;74.50
63047;DHT22;62025;39.238;9.126;2023-03-19T10:36:57;17.30;74.20
63047;DHT22;62025;39.238;9.126;2023-03-19T10:39:24;17.30;74.60
63047;DHT22;62025;39.238;9.126;2023-03-19T10:44:49;17.40;73.80
63047;DHT22;62025;39.238;9.126;2023-03-19T10:47:18;17.50;74.20
63047;DHT22;62025;39.238;9.126;2023-03-19T10:49:48;17.50;74.20
63047;DHT22;62025;39.238;9.126;2023-03-19T10:57:41;17.70;71.70
63047;DHT22;62025;39.238;9.126;2023-03-19T11:00:15;17.80;70.60
63047;DHT22;62025;39.238;9.126;2023-03-19T11:02:49;17.80;70.10
63047;DHT22;62025;39.238;9.126;2023-03-19T11:05:22;17.80;69.60
63047;DHT22;62025;39.238;9.126;2023-03-19T11:07:56;17.90;69.20
63047;DHT22;62025;39.238;9.126;2023-03-19T11:10:25;17.70;69.00
63047;DHT22;62025;39.238;9.126;2023-03-19T11:12:58;17.80;69.10
63047;DHT22;62025;39.238;9.126;2023-03-19T11:15:36;17.80;69.00
63047;DHT22;62025;39.238;9.126;2023-03-19T11:18:07;17.80;68.10
63047;DHT22;62025;39.238;9.126;2023-03-19T11:20:34;17.90;67.90
63047;DHT22;62025;39.238;9.126;2023-03-19T11:23:05;17.90;66.70
63047;DHT22;62025;39.238;9.126;2023-03-19T11:25:37;17.90;66.80
63047;DHT22;62025;39.238;9.126;2023-03-19T11:36:28;18.10;69.30
63047;DHT22;62025;39.238;9.126;2023-03-19T11:42:03;18.00;67.70
63047;DHT22;62025;39.238;9.126;2023-03-19T11:44:34;18.20;66.40
63047;DHT22;62025;39.238;9.126;2023-03-19T11:47:22;18.20;68.40
63047;DHT22;62025;39.238;9.126;2023-03-19T11:52:40;18.20;66.20
63047;DHT22;62025;39.238;9.126;2023-03-19T11:55:30;18.20;64.50
63047;DHT22;62025;39.238;9.126;2023-03-19T12:01:23;18.20;68.10
63047;DHT22;62025;39.238;9.126;2023-03-19T12:06:34;18.20;69.20
63047;DHT22;62025;39.238;9.126;2023-03-19T12:09:02;18.00;69.20
63047;DHT22;62025;39.238;9.126;2023-03-19T12:17:19;18.00;70.60
63047;DHT22;62025;39.238;9.126;2023-03-19T12:20:26;18.00;70.50
63047;DHT22;62025;39.238;9.126;2023-03-19T12:29:06;17.90;71.60
63047;DHT22;62025;39.238;9.126;2023-03-19T12:34:24;17.60;71.60
63047;DHT22;62025;39.238;9.126;2023-03-19T12:39:43;17.80;70.90
63047;DHT22;62025;39.238;9.126;2023-03-19T12:42:22;17.80;71.60
63047;DHT22;62025;39.238;9.126;2023-03-19T12:44:51;17.70;72.00
63047;DHT22;62025;39.238;9.126;2023-03-19T12:49:52;17.50;72.00
63047;DHT22;62025;39.238;9.126;2023-03-19T12:52:27;17.50;72.30
63047;DHT22;62025;39.238;9.126;2023-03-19T12:57:43;17.50;71.90
63047;DHT22;62025;39.238;9.126;2023-03-19T13:00:25;17.60;71.80
63047;DHT22;62025;39.238;9.126;2023-03-19T13:03:27;17.60;71.60
63047;DHT22;62025;39.238;9.126;2023-03-19T13:05:58;17.60;71.00
63047;DHT22;62025;39.238;9.126;2023-03-19T13:08:31;17.60;71.00
63047;DHT22;62025;39.238;9.126;2023-03-19T13:11:00;17.50;71.20
63047;DHT22;62025;39.238;9.126;2023-03-19T13:16:13;17.60;71.00
63047;DHT22;62025;39.238;9.126;2023-03-19T13:19:19;17.60;70.90
63047;DHT22;62025;39.238;9.126;2023-03-19T13:21:50;17.60;70.70
63047;DHT22;62025;39.238;9.126;2023-03-19T13:24:23;17.60;70.40
63047;DHT22;62025;39.238;9.126;2023-03-19T13:26:50;17.70;70.20
63047;DHT22;62025;39.238;9.126;2023-03-19T13:31:44;17.60;68.70
63047;DHT22;62025;39.238;9.126;2023-03-19T13:36:46;17.70;67.50
63047;DHT22;62025;39.238;9.126;2023-03-19T13:39:17;17.70;67.50
63047;DHT22;62025;39.238;9.126;2023-03-19T13:41:49;17.70;66.90
63047;DHT22;62025;39.238;9.126;2023-03-19T13:47:00;17.60;65.80
63047;DHT22;62025;39.238;9.126;2023-03-19T13:49:29;17.80;66.40
63047;DHT22;62025;39.238;9.126;2023-03-19T13:51:59;17.90;67.90
63047;DHT22;62025;39.238;9.126;2023-03-19T13:54:51;17.80;69.20
63047;DHT22;62025;39.238;9.126;2023-03-19T13:57:19;17.70;69.60
63047;DHT22;62025;39.238;9.126;2023-03-19T13:59:47;17.80;67.80
63047;DHT22;62025;39.238;9.126;2023-03-19T14:04:50;17.70;66.30
63047;DHT22;62025;39.238;9.126;2023-03-19T14:07:29;17.70;65.90
63047;DHT22;62025;39.238;9.126;2023-03-19T14:12:36;17.50;65.20
63047;DHT22;62025;39.238;9.126;2023-03-19T14:17:33;17.60;65.80
63047;DHT22;62025;39.238;9.126;2023-03-19T14:22:36;17.60;65.90
63047;DHT22;62025;39.238;9.126;2023-03-19T14:25:25;17.60;65.90
63047;DHT22;62025;39.238;9.126;2023-03-19T14:27:56;17.70;66.40
63047;DHT22;62025;39.238;9.126;2023-03-19T14:32:58;17.70;66.40
63047;DHT22;62025;39.238;9.126;2023-03-19T14:35:27;17.70;65.90
63047;DHT22;62025;39.238;9.126;2023-03-19T14:37:57;17.60;65.80
63047;DHT22;62025;39.238;9.126;2023-03-19T14:40:37;17.60;65.90
63047;DHT22;62025;39.238;9.126;2023-03-19T14:45:59;17.60;65.50
63047;DHT22;62025;39.238;9.126;2023-03-19T14:56:40;17.50;66.00
63047;DHT22;62025;39.238;9.126;2023-03-19T14:59:07;17.50;64.60
63047;DHT22;62025;39.238;9.126;2023-03-19T15:01:37;17.50;64.60
63047;DHT22;62025;39.238;9.126;2023-03-19T15:04:07;17.50;64.50
63047;DHT22;62025;39.238;9.126;2023-03-19T15:06:37;17.50;65.80
63047;DHT22;62025;39.238;9.126;2023-03-19T15:09:05;17.60;66.30
63047;DHT22;62025;39.238;9.126;2023-03-19T15:17:28;17.80;66.10
63047;DHT22;62025;39.238;9.126;2023-03-19T15:19:57;17.70;64.70
63047;DHT22;62025;39.238;9.126;2023-03-19T15:22:26;17.50;66.00
63047;DHT22;62025;39.238;9.126;2023-03-19T15:25:05;17.60;66.40
63047;DHT22;62025;39.238;9.126;2023-03-19T15:27:32;17.70;66.10
63047;DHT22;62025;39.238;9.126;2023-03-19T15:29:58;17.70;65.60
63047;DHT22;62025;39.238;9.126;2023-03-19T15:32:37;17.60;65.10
63047;DHT22;62025;39.238;9.126;2023-03-19T15:35:04;17.60;65.50
63047;DHT22;62025;39.238;9.126;2023-03-19T15:37:32;17.60;64.90
63047;DHT22;62025;39.238;9.126;2023-03-19T15:40:02;17.60;65.00
63047;DHT22;62025;39.238;9.126;2023-03-19T15:42:31;17.60;65.20
63047;DHT22;62025;39.238;9.126;2023-03-19T15:47:29;17.70;65.00
63047;DHT22;62025;39.238;9.126;2023-03-19T15:50:00;17.80;65.20
63047;DHT22;62025;39.238;9.126;2023-03-19T15:52:30;17.70;65.30
63047;DHT22;62025;39.238;9.126;2023-03-19T15:54:58;17.70;65.30
63047;DHT22;62025;39.238;9.126;2023-03-19T15:57:25;17.60;65.80
63047;DHT22;62025;39.238;9.126;2023-03-19T15:59:53;17.50;65.60
63047;DHT22;62025;39.238;9.126;2023-03-19T16:02:32;17.50;65.30
63047;DHT22;62025;39.238;9.126;2023-03-19T16:04:59;17.60;65.00
63047;DHT22;62025;39.238;9.126;2023-03-19T16:07:47;17.50;65.20
63047;DHT22;62025;39.238;9.126;2023-03-19T16:10:32;17.40;64.60
63047;DHT22;62025;39.238;9.126;2023-03-19T16:13:00;17.30;64.80
63047;DHT22;62025;39.238;9.126;2023-03-19T16:15:32;17.30;65.30
63047;DHT22;62025;39.238;9.126;2023-03-19T16:20:40;17.30;65.50
63047;DHT22;62025;39.238;9.126;2023-03-19T16:23:08;17.30;65.40
63047;DHT22;62025;39.238;9.126;2023-03-19T16:25:42;17.40;64.70
63047;DHT22;62025;39.238;9.126;2023-03-19T16:28:15;17.40;64.80
63047;DHT22;62025;39.238;9.126;2023-03-19T16:30:45;17.30;64.40
63047;DHT22;62025;39.238;9.126;2023-03-19T16:33:12;17.20;63.90
63047;DHT22;62025;39.238;9.126;2023-03-19T16:35:38;17.30;64.20
63047;DHT22;62025;39.238;9.126;2023-03-19T16:38:21;17.20;63.90
63047;DHT22;62025;39.238;9.126;2023-03-19T16:40:49;17.30;63.90
63047;DHT22;62025;39.238;9.126;2023-03-19T16:44:00;17.30;64.30
63047;DHT22;62025;39.238;9.126;2023-03-19T16:46:37;17.30;64.40
63047;DHT22;62025;39.238;9.126;2023-03-19T16:49:03;17.30;64.60
63047;DHT22;62025;39.238;9.126;2023-03-19T16:51:29;17.30;64.90
63047;DHT22;62025;39.238;9.126;2023-03-19T16:53:55;17.30;65.80
63047;DHT22;62025;39.238;9.126;2023-03-19T16:56:20;17.30;66.10
63047;DHT22;62025;39.238;9.126;2023-03-19T16:58:46;17.20;66.50
63047;DHT22;62025;39.238;9.126;2023-03-19T17:01:16;17.10;66.00
63047;DHT22;62025;39.238;9.126;2023-03-19T17:03:44;17.10;66.10
63047;DHT22;62025;39.238;9.126;2023-03-19T17:06:11;17.00;67.30
63047;DHT22;62025;39.238;9.126;2023-03-19T17:08:38;17.00;69.90
63047;DHT22;62025;39.238;9.126;2023-03-19T17:11:04;17.00;70.50
63047;DHT22;62025;39.238;9.126;2023-03-19T17:13:30;17.00;70.90
63047;DHT22;62025;39.238;9.126;2023-03-19T17:15:58;16.90;71.20
63047;DHT22;62025;39.238;9.126;2023-03-19T17:18:30;17.00;71.40
63047;DHT22;62025;39.238;9.126;2023-03-19T17:23:28;17.00;71.70
63047;DHT22;62025;39.238;9.126;2023-03-19T17:25:55;16.90;72.00
63047;DHT22;62025;39.238;9.126;2023-03-19T17:28:22;16.80;72.60
63047;DHT22;62025;39.238;9.126;2023-03-19T17:30:48;16.90;72.80
63047;DHT22;62025;39.238;9.126;2023-03-19T17:33:19;16.90;72.90
63047;DHT22;62025;39.238;9.126;2023-03-19T17:35:47;17.00;72.90
63047;DHT22;62025;39.238;9.126;2023-03-19T17:38:13;16.90;73.50
63047;DHT22;62025;39.238;9.126;2023-03-19T17:40:42;16.80;74.20
63047;DHT22;62025;39.238;9.126;2023-03-19T17:43:09;16.80;74.10
63047;DHT22;62025;39.238;9.126;2023-03-19T17:45:36;16.90;73.90
63047;DHT22;62025;39.238;9.126;2023-03-19T17:48:04;16.90;74.10
63047;DHT22;62025;39.238;9.126;2023-03-19T17:50:30;16.80;74.50